sensor_id;sensor_type;location;lat;lon;timestamp;pressure;altitude;pressure_sealevel;temperature;humidity
47080;BME280;33067;49.296;14.470;2023-03-13T00:01:20;96552.84;;;9.82;41.77
47080;BME280;33067;49.296;14.470;2023-03-13T00:03:43;96553.91;;;9.58;42.35
47080;BME280;33067;49.296;14.470;2023-03-13T00:06:09;96553.82;;;9.55;42.54
47080;BME280;33067;49.296;14.470;2023-03-13T00:08:34;96554.79;;;9.78;42.24
47080;BME280;33067;49.296;14.470;2023-03-13T00:11:02;96556.68;;;9.76;42.35
47080;BME280;33067;49.296;14.470;2023-03-13T00:13:25;96557.35;;;9.67;42.40
47080;BME280;33067;49.296;14.470;2023-03-13T00:15:59;96558.53;;;10.14;41.74
47080;BME280;33067;49.296;14.470;2023-03-13T00:18:16;96558.78;;;9.58;41.82
47080;BME280;33067;49.296;14.470;2023-03-13T00:20:41;96557.41;;;9.91;42.15
47080;BME280;33067;49.296;14.470;2023-03-13T00:23:06;96552.74;;;10.01;42.04
47080;BME280;33067;49.296;14.470;2023-03-13T00:25:32;96549.70;;;9.88;41.94
47080;BME280;33067;49.296;14.470;2023-03-13T00:27:57;96544.95;;;9.88;42.26
47080;BME280;33067;49.296;14.470;2023-03-13T00:30:23;96537.08;;;9.88;42.02
47080;BME280;33067;49.296;14.470;2023-03-13T00:32:48;96535.75;;;10.11;42.14
47080;BME280;33067;49.296;14.470;2023-03-13T00:35:14;96533.31;;;10.21;41.86
47080;BME280;33067;49.296;14.470;2023-03-13T00:37:39;96530.77;;;9.91;42.00
47080;BME280;33067;49.296;14.470;2023-03-13T00:40:06;96533.10;;;10.39;41.69
47080;BME280;33067;49.296;14.470;2023-03-13T00:42:30;96532.65;;;9.89;41.79
47080;BME280;33067;49.296;14.470;2023-03-13T00:44:55;96533.18;;;9.95;41.72
47080;BME280;33067;49.296;14.470;2023-03-13T00:47:20;96532.05;;;9.96;41.76
47080;BME280;33067;49.296;14.470;2023-03-13T00:49:46;96530.63;;;9.93;41.93
47080;BME280;33067;49.296;14.470;2023-03-13T00:52:11;96532.05;;;10.04;41.88
47080;BME280;33067;49.296;14.470;2023-03-13T00:54:37;96534.67;;;10.18;41.59
47080;BME280;33067;49.296;14.470;2023-03-13T00:57:02;96531.85;;;10.47;41.57
47080;BME280;33067;49.296;14.470;2023-03-13T00:59:27;96529.93;;;10.33;41.34
47080;BME280;33067;49.296;14.470;2023-03-13T01:01:53;96531.33;;;10.29;41.38
47080;BME280;33067;49.296;14.470;2023-03-13T01:04:18;96526.08;;;10.14;41.57
47080;BME280;33067;49.296;14.470;2023-03-13T01:06:44;96526.21;;;10.10;41.61
47080;BME280;33067;49.296;14.470;2023-03-13T01:09:11;96524.95;;;10.63;41.64
47080;BME280;33067;49.296;14.470;2023-03-13T01:11:37;96522.79;;;10.10;41.73
47080;BME280;33067;49.296;14.470;2023-03-13T01:14:02;96519.77;;;10.12;41.61
47080;BME280;33067;49.296;14.470;2023-03-13T01:16:27;96521.43;;;10.24;41.53
47080;BME280;33067;49.296;14.470;2023-03-13T01:18:53;96517.82;;;10.06;41.86
47080;BME280;33067;49.296;14.470;2023-03-13T01:21:17;96519.94;;;10.33;41.80
47080;BME280;33067;49.296;14.470;2023-03-13T01:23:41;96519.03;;;10.02;41.81
47080;BME280;33067;49.296;14.470;2023-03-13T01:26:07;96515.26;;;10.22;41.53
47080;BME280;33067;49.296;14.470;2023-03-13T01:28:34;96516.44;;;10.32;41.39
47080;BME280;33067;49.296;14.470;2023-03-13T01:30:58;96514.88;;;10.10;41.92
47080;BME280;33067;49.296;14.470;2023-03-13T01:33:23;96512.66;;;10.15;41.96
47080;BME280;33067;49.296;14.470;2023-03-13T01:35:49;96509.80;;;10.10;42.16
47080;BME280;33067;49.296;14.470;2023-03-13T01:38:14;96507.41;;;10.26;41.94
47080;BME280;33067;49.296;14.470;2023-03-13T01:40:40;96503.47;;;10.33;41.77
47080;BME280;33067;49.296;14.470;2023-03-13T01:43:15;96501.33;;;10.33;41.72
47080;BME280;33067;49.296;14.470;2023-03-13T01:47:55;96492.32;;;10.13;42.13
47080;BME280;33067;49.296;14.470;2023-03-13T01:50:20;96487.17;;;10.19;42.41
47080;BME280;33067;49.296;14.470;2023-03-13T01:52:45;96488.73;;;10.01;42.24
47080;BME280;33067;49.296;14.470;2023-03-13T01:55:13;96485.99;;;10.17;42.08
47080;BME280;33067;49.296;14.470;2023-03-13T01:57:39;96487.77;;;10.11;41.98
47080;BME280;33067;49.296;14.470;2023-03-13T02:00:05;96487.03;;;10.58;41.64
47080;BME280;33067;49.296;14.470;2023-03-13T02:02:28;96485.52;;;10.25;41.63
47080;BME280;33067;49.296;14.470;2023-03-13T02:04:54;96480.33;;;10.28;41.64
47080;BME280;33067;49.296;14.470;2023-03-13T02:07:21;96474.07;;;10.41;41.50
47080;BME280;33067;49.296;14.470;2023-03-13T02:09:46;96469.16;;;10.34;41.72
47080;BME280;33067;49.296;14.470;2023-03-13T02:12:10;96460.69;;;10.91;41.64
47080;BME280;33067;49.296;14.470;2023-03-13T02:14:36;96456.77;;;10.36;41.88
47080;BME280;33067;49.296;14.470;2023-03-13T02:16:59;96452.82;;;10.31;42.03
47080;BME280;33067;49.296;14.470;2023-03-13T02:19:30;96455.86;;;10.43;41.89
47080;BME280;33067;49.296;14.470;2023-03-13T02:21:53;96453.38;;;10.32;42.28
47080;BME280;33067;49.296;14.470;2023-03-13T02:24:21;96448.64;;;10.21;42.29
47080;BME280;33067;49.296;14.470;2023-03-13T02:26:40;96444.88;;;10.30;42.75
47080;BME280;33067;49.296;14.470;2023-03-13T02:29:06;96450.01;;;10.67;42.55
47080;BME280;33067;49.296;14.470;2023-03-13T02:31:31;96455.73;;;10.68;42.44
47080;BME280;33067;49.296;14.470;2023-03-13T02:33:59;96461.31;;;10.10;42.69
47080;BME280;33067;49.296;14.470;2023-03-13T02:36:22;96468.64;;;10.14;42.52
47080;BME280;33067;49.296;14.470;2023-03-13T02:38:52;96471.42;;;10.28;42.24
47080;BME280;33067;49.296;14.470;2023-03-13T02:41:13;96469.50;;;10.38;41.75
47080;BME280;33067;49.296;14.470;2023-03-13T02:43:38;96472.08;;;10.43;41.52
47080;BME280;33067;49.296;14.470;2023-03-13T02:46:06;96475.50;;;10.52;41.17
47080;BME280;33067;49.296;14.470;2023-03-13T02:48:31;96481.15;;;10.47;41.17
47080;BME280;33067;49.296;14.470;2023-03-13T02:50:55;96479.36;;;10.46;41.08
47080;BME280;33067;49.296;14.470;2023-03-13T02:53:19;96480.46;;;10.49;40.95
47080;BME280;33067;49.296;14.470;2023-03-13T02:55:44;96477.94;;;10.45;41.05
47080;BME280;33067;49.296;14.470;2023-03-13T02:58:10;96478.94;;;10.39;40.94
47080;BME280;33067;49.296;14.470;2023-03-13T03:00:35;96478.06;;;10.95;40.72
47080;BME280;33067;49.296;14.470;2023-03-13T03:03:01;96476.48;;;10.33;40.93
47080;BME280;33067;49.296;14.470;2023-03-13T03:05:26;96474.48;;;10.48;40.67
47080;BME280;33067;49.296;14.470;2023-03-13T03:07:51;96480.33;;;10.34;41.02
47080;BME280;33067;49.296;14.470;2023-03-13T03:13:01;96476.08;;;9.48;39.86
47080;BME280;33067;49.296;14.470;2023-03-13T03:15:26;96477.28;;;11.62;39.72
47080;BME280;33067;49.296;14.470;2023-03-13T03:17:51;96478.40;;;10.83;40.74
47080;BME280;33067;49.296;14.470;2023-03-13T03:20:17;96474.93;;;10.42;40.98
47080;BME280;33067;49.296;14.470;2023-03-13T03:22:42;96474.16;;;10.05;41.61
47080;BME280;33067;49.296;14.470;2023-03-13T03:25:08;96474.59;;;10.29;41.70
47080;BME280;33067;49.296;14.470;2023-03-13T03:27:33;96470.94;;;9.89;41.98
47080;BME280;33067;49.296;14.470;2023-03-13T03:29:58;96470.61;;;9.68;42.66
47080;BME280;33067;49.296;14.470;2023-03-13T03:32:24;96471.09;;;9.80;42.86
47080;BME280;33067;49.296;14.470;2023-03-13T03:34:49;96471.79;;;9.67;43.14
47080;BME280;33067;49.296;14.470;2023-03-13T03:37:14;96475.41;;;9.60;43.26
47080;BME280;33067;49.296;14.470;2023-03-13T03:39:39;96481.98;;;9.64;43.05
47080;BME280;33067;49.296;14.470;2023-03-13T03:42:05;96482.69;;;9.58;43.14
47080;BME280;33067;49.296;14.470;2023-03-13T03:44:30;96483.74;;;9.35;42.93
47080;BME280;33067;49.296;14.470;2023-03-13T03:46:56;96481.57;;;9.38;42.80
47080;BME280;33067;49.296;14.470;2023-03-13T03:49:20;96480.23;;;9.49;42.64
47080;BME280;33067;49.296;14.470;2023-03-13T03:51:46;96482.86;;;9.39;42.66
47080;BME280;33067;49.296;14.470;2023-03-13T03:54:12;96482.47;;;9.36;42.81
47080;BME280;33067;49.296;14.470;2023-03-13T03:56:37;96479.23;;;9.24;43.31
47080;BME280;33067;49.296;14.470;2023-03-13T03:59:02;96482.13;;;9.29;43.30
47080;BME280;33067;49.296;14.470;2023-03-13T04:01:27;96490.19;;;9.38;43.50
47080;BME280;33067;49.296;14.470;2023-03-13T04:03:53;96487.30;;;9.18;43.30
47080;BME280;33067;49.296;14.470;2023-03-13T04:06:18;96483.27;;;9.13;43.47
47080;BME280;33067;49.296;14.470;2023-03-13T04:08:44;96481.63;;;9.26;43.18
47080;BME280;33067;49.296;14.470;2023-03-13T04:11:09;96481.10;;;9.06;43.46
47080;BME280;33067;49.296;14.470;2023-03-13T04:13:35;96480.34;;;8.96;43.55
47080;BME280;33067;49.296;14.470;2023-03-13T04:16:06;96477.53;;;9.00;43.77
47080;BME280;33067;49.296;14.470;2023-03-13T04:18:25;96474.61;;;8.99;43.84
47080;BME280;33067;49.296;14.470;2023-03-13T04:20:59;96481.93;;;8.87;44.12
47080;BME280;33067;49.296;14.470;2023-03-13T04:23:17;96481.57;;;8.69;44.54
47080;BME280;33067;49.296;14.470;2023-03-13T04:25:42;96477.82;;;8.76;44.46
47080;BME280;33067;49.296;14.470;2023-03-13T04:28:08;96472.81;;;8.99;44.65
47080;BME280;33067;49.296;14.470;2023-03-13T04:30:33;96471.49;;;8.75;44.54
47080;BME280;33067;49.296;14.470;2023-03-13T04:32:58;96473.48;;;8.80;44.29
47080;BME280;33067;49.296;14.470;2023-03-13T04:35:23;96471.73;;;8.90;44.25
47080;BME280;33067;49.296;14.470;2023-03-13T04:37:48;96471.43;;;8.73;44.53
47080;BME280;33067;49.296;14.470;2023-03-13T04:40:14;96472.70;;;9.05;44.99
47080;BME280;33067;49.296;14.470;2023-03-13T04:42:40;96480.47;;;8.79;44.70
47080;BME280;33067;49.296;14.470;2023-03-13T04:45:06;96476.75;;;8.61;45.04
47080;BME280;33067;49.296;14.470;2023-03-13T04:47:31;96473.68;;;8.93;44.59
47080;BME280;33067;49.296;14.470;2023-03-13T04:49:56;96472.05;;;8.71;44.97
47080;BME280;33067;49.296;14.470;2023-03-13T04:52:21;96465.78;;;9.00;44.95
47080;BME280;33067;49.296;14.470;2023-03-13T04:54:48;96456.17;;;8.90;44.61
47080;BME280;33067;49.296;14.470;2023-03-13T04:57:12;96452.94;;;9.33;44.76
47080;BME280;33067;49.296;14.470;2023-03-13T04:59:37;96453.13;;;9.11;44.84
47080;BME280;33067;49.296;14.470;2023-03-13T05:02:02;96447.44;;;9.23;44.65
47080;BME280;33067;49.296;14.470;2023-03-13T05:04:28;96439.50;;;9.15;44.83
47080;BME280;33067;49.296;14.470;2023-03-13T05:06:53;96436.27;;;9.20;44.83
47080;BME280;33067;49.296;14.470;2023-03-13T05:09:19;96427.27;;;8.97;44.88
47080;BME280;33067;49.296;14.470;2023-03-13T05:11:45;96429.61;;;9.25;44.45
47080;BME280;33067;49.296;14.470;2023-03-13T05:14:09;96429.73;;;8.97;44.95
47080;BME280;33067;49.296;14.470;2023-03-13T05:16:34;96423.28;;;9.16;44.72
47080;BME280;33067;49.296;14.470;2023-03-13T05:19:00;96427.15;;;9.30;44.48
47080;BME280;33067;49.296;14.470;2023-03-13T05:21:25;96431.21;;;9.65;44.80
47080;BME280;33067;49.296;14.470;2023-03-13T05:23:51;96429.89;;;9.17;44.81
47080;BME280;33067;49.296;14.470;2023-03-13T05:26:16;96426.10;;;8.87;45.27
47080;BME280;33067;49.296;14.470;2023-03-13T05:28:42;96421.49;;;9.20;45.28
47080;BME280;33067;49.296;14.470;2023-03-13T05:31:07;96419.98;;;9.35;45.11
47080;BME280;33067;49.296;14.470;2023-03-13T05:33:32;96420.82;;;9.25;45.63
47080;BME280;33067;49.296;14.470;2023-03-13T05:35:58;96421.70;;;9.07;45.24
47080;BME280;33067;49.296;14.470;2023-03-13T05:38:23;96426.62;;;9.34;45.28
47080;BME280;33067;49.296;14.470;2023-03-13T05:40:50;96421.57;;;9.33;44.94
47080;BME280;33067;49.296;14.470;2023-03-13T05:43:14;96418.93;;;9.43;44.79
47080;BME280;33067;49.296;14.470;2023-03-13T05:45:39;96415.66;;;9.02;45.51
47080;BME280;33067;49.296;14.470;2023-03-13T05:48:06;96417.58;;;9.51;44.74
47080;BME280;33067;49.296;14.470;2023-03-13T05:50:31;96417.86;;;9.72;44.80
47080;BME280;33067;49.296;14.470;2023-03-13T05:52:55;96410.55;;;9.52;44.81
47080;BME280;33067;49.296;14.470;2023-03-13T05:55:21;96404.88;;;9.41;44.70
47080;BME280;33067;49.296;14.470;2023-03-13T05:57:47;96398.94;;;9.76;44.59
47080;BME280;33067;49.296;14.470;2023-03-13T06:00:14;96400.83;;;9.54;44.54
47080;BME280;33067;49.296;14.470;2023-03-13T06:02:37;96399.59;;;9.66;44.41
47080;BME280;33067;49.296;14.470;2023-03-13T06:05:03;96398.70;;;10.03;44.33
47080;BME280;33067;49.296;14.470;2023-03-13T06:07:28;96400.29;;;9.90;44.49
47080;BME280;33067;49.296;14.470;2023-03-13T06:09:53;96396.81;;;9.96;44.58
47080;BME280;33067;49.296;14.470;2023-03-13T06:12:21;96390.80;;;9.86;44.33
47080;BME280;33067;49.296;14.470;2023-03-13T06:14:44;96385.14;;;10.07;44.21
47080;BME280;33067;49.296;14.470;2023-03-13T06:17:09;96383.37;;;9.93;44.07
47080;BME280;33067;49.296;14.470;2023-03-13T06:19:35;96379.32;;;10.49;43.58
47080;BME280;33067;49.296;14.470;2023-03-13T06:22:00;96385.41;;;10.53;43.41
47080;BME280;33067;49.296;14.470;2023-03-13T06:24:25;96387.46;;;10.66;43.19
47080;BME280;33067;49.296;14.470;2023-03-13T06:26:50;96381.80;;;10.41;43.40
47080;BME280;33067;49.296;14.470;2023-03-13T06:29:16;96382.10;;;10.43;43.31
47080;BME280;33067;49.296;14.470;2023-03-13T06:31:42;96386.13;;;10.43;43.52
47080;BME280;33067;49.296;14.470;2023-03-13T06:34:07;96383.51;;;10.68;42.85
47080;BME280;33067;49.296;14.470;2023-03-13T06:36:33;96382.00;;;10.63;42.82
47080;BME280;33067;49.296;14.470;2023-03-13T06:38:57;96385.59;;;10.53;43.13
47080;BME280;33067;49.296;14.470;2023-03-13T06:41:22;96383.42;;;10.73;43.14
47080;BME280;33067;49.296;14.470;2023-03-13T06:43:48;96385.23;;;10.33;43.65
47080;BME280;33067;49.296;14.470;2023-03-13T06:46:16;96386.82;;;11.03;43.07
47080;BME280;33067;49.296;14.470;2023-03-13T06:48:38;96382.01;;;10.85;43.06
47080;BME280;33067;49.296;14.470;2023-03-13T06:51:04;96378.91;;;10.21;44.07
47080;BME280;33067;49.296;14.470;2023-03-13T06:53:29;96377.42;;;10.43;43.81
47080;BME280;33067;49.296;14.470;2023-03-13T06:55:54;96378.01;;;10.76;43.44
47080;BME280;33067;49.296;14.470;2023-03-13T06:58:20;96381.75;;;10.66;43.69
47080;BME280;33067;49.296;14.470;2023-03-13T07:00:45;96379.61;;;10.81;43.18
47080;BME280;33067;49.296;14.470;2023-03-13T07:03:10;96382.86;;;11.00;43.00
47080;BME280;33067;49.296;14.470;2023-03-13T07:05:36;96377.03;;;11.08;42.62
47080;BME280;33067;49.296;14.470;2023-03-13T07:08:01;96375.01;;;11.09;42.66
47080;BME280;33067;49.296;14.470;2023-03-13T07:10:29;96369.45;;;10.99;42.79
47080;BME280;33067;49.296;14.470;2023-03-13T07:12:52;96371.52;;;10.81;42.96
47080;BME280;33067;49.296;14.470;2023-03-13T07:15:18;96371.62;;;10.95;42.54
47080;BME280;33067;49.296;14.470;2023-03-13T07:17:43;96368.77;;;11.28;42.63
47080;BME280;33067;49.296;14.470;2023-03-13T07:20:10;96365.01;;;11.28;42.77
47080;BME280;33067;49.296;14.470;2023-03-13T07:22:35;96355.15;;;11.42;42.43
47080;BME280;33067;49.296;14.470;2023-03-13T07:24:59;96351.36;;;11.22;42.67
47080;BME280;33067;49.296;14.470;2023-03-13T07:27:24;96347.45;;;10.78;43.68
47080;BME280;33067;49.296;14.470;2023-03-13T07:29:50;96354.69;;;11.30;43.19
47080;BME280;33067;49.296;14.470;2023-03-13T07:32:16;96358.55;;;11.19;43.17
47080;BME280;33067;49.296;14.470;2023-03-13T07:34:40;96349.35;;;11.00;43.34
47080;BME280;33067;49.296;14.470;2023-03-13T07:37:06;96343.39;;;11.12;43.06
47080;BME280;33067;49.296;14.470;2023-03-13T07:39:32;96336.01;;;10.77;43.74
47080;BME280;33067;49.296;14.470;2023-03-13T07:41:57;96342.75;;;10.69;43.80
47080;BME280;33067;49.296;14.470;2023-03-13T07:44:22;96340.64;;;10.81;43.59
47080;BME280;33067;49.296;14.470;2023-03-13T07:46:48;96338.95;;;10.95;43.37
47080;BME280;33067;49.296;14.470;2023-03-13T07:49:14;96349.16;;;11.10;42.93
47080;BME280;33067;49.296;14.470;2023-03-13T07:51:39;96343.35;;;11.04;42.57
47080;BME280;33067;49.296;14.470;2023-03-13T07:54:04;96328.73;;;11.53;42.38
47080;BME280;33067;49.296;14.470;2023-03-13T07:56:30;96322.34;;;11.40;42.01
47080;BME280;33067;49.296;14.470;2023-03-13T07:58:55;96335.29;;;11.36;42.09
47080;BME280;33067;49.296;14.470;2023-03-13T08:01:22;96324.02;;;11.25;41.96
47080;BME280;33067;49.296;14.470;2023-03-13T08:03:46;96321.51;;;11.08;41.90
47080;BME280;33067;49.296;14.470;2023-03-13T08:06:13;96315.61;;;11.48;41.38
47080;BME280;33067;49.296;14.470;2023-03-13T08:08:37;96315.12;;;11.45;41.50
47080;BME280;33067;49.296;14.470;2023-03-13T08:11:03;96313.86;;;11.67;41.14
47080;BME280;33067;49.296;14.470;2023-03-13T08:13:27;96313.75;;;11.44;41.82
47080;BME280;33067;49.296;14.470;2023-03-13T08:16:02;96309.68;;;11.24;42.48
47080;BME280;33067;49.296;14.470;2023-03-13T08:18:18;96309.00;;;11.26;42.56
47080;BME280;33067;49.296;14.470;2023-03-13T08:20:43;96302.16;;;11.39;42.62
47080;BME280;33067;49.296;14.470;2023-03-13T08:23:09;96298.58;;;11.45;42.64
47080;BME280;33067;49.296;14.470;2023-03-13T08:25:34;96291.48;;;11.41;42.78
47080;BME280;33067;49.296;14.470;2023-03-13T08:27:59;96287.48;;;11.68;42.31
47080;BME280;33067;49.296;14.470;2023-03-13T08:30:25;96279.47;;;11.79;42.15
47080;BME280;33067;49.296;14.470;2023-03-13T08:32:50;96272.83;;;12.12;41.40
47080;BME280;33067;49.296;14.470;2023-03-13T08:35:15;96267.60;;;12.27;40.99
47080;BME280;33067;49.296;14.470;2023-03-13T08:37:41;96266.61;;;11.73;41.39
47080;BME280;33067;49.296;14.470;2023-03-13T08:40:07;96256.44;;;11.89;41.04
47080;BME280;33067;49.296;14.470;2023-03-13T08:42:31;96251.71;;;11.96;40.96
47080;BME280;33067;49.296;14.470;2023-03-13T08:44:57;96246.74;;;12.14;40.35
47080;BME280;33067;49.296;14.470;2023-03-13T08:47:23;96241.22;;;12.45;39.80
47080;BME280;33067;49.296;14.470;2023-03-13T08:49:48;96236.28;;;12.21;40.33
47080;BME280;33067;49.296;14.470;2023-03-13T08:52:13;96228.02;;;11.74;40.71
47080;BME280;33067;49.296;14.470;2023-03-13T08:54:39;96232.79;;;11.56;41.16
47080;BME280;33067;49.296;14.470;2023-03-13T08:57:04;96230.63;;;11.85;40.43
47080;BME280;33067;49.296;14.470;2023-03-13T08:59:29;96233.44;;;12.19;40.19
47080;BME280;33067;49.296;14.470;2023-03-13T09:01:56;96228.95;;;12.11;39.82
47080;BME280;33067;49.296;14.470;2023-03-13T09:04:20;96229.73;;;12.73;39.53
47080;BME280;33067;49.296;14.470;2023-03-13T09:06:46;96229.16;;;12.33;39.61
47080;BME280;33067;49.296;14.470;2023-03-13T09:09:12;96229.25;;;12.78;38.98
47080;BME280;33067;49.296;14.470;2023-03-13T09:11:37;96228.94;;;12.83;39.00
47080;BME280;33067;49.296;14.470;2023-03-13T09:14:02;96232.99;;;12.53;38.88
47080;BME280;33067;49.296;14.470;2023-03-13T09:16:30;96226.29;;;12.79;38.70
47080;BME280;33067;49.296;14.470;2023-03-13T09:18:53;96221.08;;;12.01;39.48
47080;BME280;33067;49.296;14.470;2023-03-13T09:21:20;96212.30;;;12.37;39.02
47080;BME280;33067;49.296;14.470;2023-03-13T09:23:43;96218.65;;;12.83;38.86
47080;BME280;33067;49.296;14.470;2023-03-13T09:26:10;96222.17;;;12.58;38.79
47080;BME280;33067;49.296;14.470;2023-03-13T09:28:35;96222.29;;;12.81;38.61
47080;BME280;33067;49.296;14.470;2023-03-13T09:31:05;96216.64;;;12.81;38.45
47080;BME280;33067;49.296;14.470;2023-03-13T09:33:25;96212.07;;;12.89;38.44
47080;BME280;33067;49.296;14.470;2023-03-13T09:35:50;96212.67;;;12.93;38.47
47080;BME280;33067;49.296;14.470;2023-03-13T09:38:15;96209.35;;;12.68;38.87
47080;BME280;33067;49.296;14.470;2023-03-13T09:40:45;96203.08;;;13.07;38.37
47080;BME280;33067;49.296;14.470;2023-03-13T09:43:17;96207.78;;;13.04;38.21
47080;BME280;33067;49.296;14.470;2023-03-13T09:45:35;96212.57;;;13.35;38.33
47080;BME280;33067;49.296;14.470;2023-03-13T09:48:01;96208.41;;;13.11;38.53
47080;BME280;33067;49.296;14.470;2023-03-13T09:50:25;96210.11;;;13.42;38.05
47080;BME280;33067;49.296;14.470;2023-03-13T09:52:49;96211.06;;;13.57;38.11
47080;BME280;33067;49.296;14.470;2023-03-13T09:55:19;96207.61;;;13.66;37.64
47080;BME280;33067;49.296;14.470;2023-03-13T09:57:44;96202.08;;;13.40;37.65
47080;BME280;33067;49.296;14.470;2023-03-13T10:00:07;96197.54;;;13.44;37.83
47080;BME280;33067;49.296;14.470;2023-03-13T10:02:32;96192.58;;;13.72;37.42
47080;BME280;33067;49.296;14.470;2023-03-13T10:05:02;96186.27;;;13.91;37.57
47080;BME280;33067;49.296;14.470;2023-03-13T10:07:19;96182.79;;;13.69;37.54
47080;BME280;33067;49.296;14.470;2023-03-13T10:09:44;96171.90;;;13.83;37.36
47080;BME280;33067;49.296;14.470;2023-03-13T10:12:15;96162.38;;;13.63;37.60
47080;BME280;33067;49.296;14.470;2023-03-13T10:14:41;96157.57;;;13.46;37.72
47080;BME280;33067;49.296;14.470;2023-03-13T10:17:04;96152.32;;;13.87;36.79
47080;BME280;33067;49.296;14.470;2023-03-13T10:19:31;96152.95;;;13.95;37.12
47080;BME280;33067;49.296;14.470;2023-03-13T10:21:52;96144.96;;;13.73;37.09
47080;BME280;33067;49.296;14.470;2023-03-13T10:24:26;96127.84;;;13.84;37.09
47080;BME280;33067;49.296;14.470;2023-03-13T10:26:42;96139.69;;;14.09;36.99
47080;BME280;33067;49.296;14.470;2023-03-13T10:29:18;96135.43;;;14.29;36.80
47080;BME280;33067;49.296;14.470;2023-03-13T10:31:34;96134.50;;;14.08;36.91
47080;BME280;33067;49.296;14.470;2023-03-13T10:34:06;96133.06;;;14.46;36.44
47080;BME280;33067;49.296;14.470;2023-03-13T10:36:23;96129.93;;;14.35;36.94
47080;BME280;33067;49.296;14.470;2023-03-13T10:38:50;96124.50;;;14.97;36.43
47080;BME280;33067;49.296;14.470;2023-03-13T10:41:24;96125.40;;;15.02;36.33
47080;BME280;33067;49.296;14.470;2023-03-13T10:43:49;96119.68;;;14.99;36.37
47080;BME280;33067;49.296;14.470;2023-03-13T10:46:04;96120.88;;;14.49;37.12
47080;BME280;33067;49.296;14.470;2023-03-13T10:48:35;96126.03;;;14.68;36.73
47080;BME280;33067;49.296;14.470;2023-03-13T10:50:56;96122.62;;;15.14;36.30
47080;BME280;33067;49.296;14.470;2023-03-13T10:53:23;96125.48;;;14.82;36.72
47080;BME280;33067;49.296;14.470;2023-03-13T10:55:45;96119.20;;;14.77;36.74
47080;BME280;33067;49.296;14.470;2023-03-13T10:58:17;96116.21;;;14.49;37.18
47080;BME280;33067;49.296;14.470;2023-03-13T11:00:36;96116.72;;;15.25;36.49
47080;BME280;33067;49.296;14.470;2023-03-13T11:03:01;96118.88;;;15.02;37.04
47080;BME280;33067;49.296;14.470;2023-03-13T11:05:31;96113.52;;;15.26;36.56
47080;BME280;33067;49.296;14.470;2023-03-13T11:07:51;96114.55;;;15.18;36.90
47080;BME280;33067;49.296;14.470;2023-03-13T11:10:19;96110.88;;;15.24;36.35
47080;BME280;33067;49.296;14.470;2023-03-13T11:12:44;96105.03;;;15.29;36.31
47080;BME280;33067;49.296;14.470;2023-03-13T11:15:12;96105.57;;;15.48;36.18
47080;BME280;33067;49.296;14.470;2023-03-13T11:17:36;96099.59;;;15.39;36.15
47080;BME280;33067;49.296;14.470;2023-03-13T11:22:38;96085.02;;;15.52;35.88
47080;BME280;33067;49.296;14.470;2023-03-13T11:24:51;96080.41;;;15.66;35.75
47080;BME280;33067;49.296;14.470;2023-03-13T11:27:21;96078.14;;;16.01;35.28
47080;BME280;33067;49.296;14.470;2023-03-13T11:29:45;96074.51;;;15.44;35.55
47080;BME280;33067;49.296;14.470;2023-03-13T11:32:11;96075.20;;;16.04;35.66
47080;BME280;33067;49.296;14.470;2023-03-13T11:34:34;96074.38;;;16.06;35.46
47080;BME280;33067;49.296;14.470;2023-03-13T11:36:59;96077.42;;;16.33;35.05
47080;BME280;33067;49.296;14.470;2023-03-13T11:39:32;96070.14;;;16.13;35.06
47080;BME280;33067;49.296;14.470;2023-03-13T11:41:54;96073.32;;;16.17;34.92
47080;BME280;33067;49.296;14.470;2023-03-13T11:44:22;96074.77;;;16.13;35.04
47080;BME280;33067;49.296;14.470;2023-03-13T11:46:44;96066.11;;;16.69;35.22
47080;BME280;33067;49.296;14.470;2023-03-13T11:49:11;96059.98;;;16.22;35.16
47080;BME280;33067;49.296;14.470;2023-03-13T11:51:30;96053.35;;;16.18;35.26
47080;BME280;33067;49.296;14.470;2023-03-13T11:54:04;96052.18;;;16.20;35.42
47080;BME280;33067;49.296;14.470;2023-03-13T11:56:19;96058.06;;;16.43;35.24
47080;BME280;33067;49.296;14.470;2023-03-13T11:58:46;96061.93;;;16.77;34.99
47080;BME280;33067;49.296;14.470;2023-03-13T12:01:10;96060.10;;;16.64;35.01
47080;BME280;33067;49.296;14.470;2023-03-13T12:03:35;96057.36;;;16.91;34.78
47080;BME280;33067;49.296;14.470;2023-03-13T12:05:59;96057.41;;;17.18;34.49
47080;BME280;33067;49.296;14.470;2023-03-13T12:08:25;96055.66;;;16.90;34.83
47080;BME280;33067;49.296;14.470;2023-03-13T12:10:49;96049.77;;;17.06;34.82
47080;BME280;33067;49.296;14.470;2023-03-13T12:13:18;96045.41;;;17.60;34.51
47080;BME280;33067;49.296;14.470;2023-03-13T12:15:39;96043.45;;;17.10;34.71
47080;BME280;33067;49.296;14.470;2023-03-13T12:18:05;96035.93;;;17.13;35.08
47080;BME280;33067;49.296;14.470;2023-03-13T12:20:31;96028.33;;;17.70;34.63
47080;BME280;33067;49.296;14.470;2023-03-13T12:23:03;96013.28;;;17.96;34.17
47080;BME280;33067;49.296;14.470;2023-03-13T12:25:22;96007.18;;;17.59;34.55
47080;BME280;33067;49.296;14.470;2023-03-13T12:27:45;95997.81;;;17.65;34.68
47080;BME280;33067;49.296;14.470;2023-03-13T12:32:36;95991.85;;;16.87;36.09
47080;BME280;33067;49.296;14.470;2023-03-13T12:35:00;95990.66;;;16.88;36.15
47080;BME280;33067;49.296;14.470;2023-03-13T12:37:27;95980.89;;;17.21;35.48
47080;BME280;33067;49.296;14.470;2023-03-13T12:39:54;95979.52;;;17.72;35.42
47080;BME280;33067;49.296;14.470;2023-03-13T12:42:25;95973.47;;;17.51;35.38
47080;BME280;33067;49.296;14.470;2023-03-13T12:44:38;95973.83;;;17.47;35.60
47080;BME280;33067;49.296;14.470;2023-03-13T12:47:09;95975.69;;;17.51;35.39
47080;BME280;33067;49.296;14.470;2023-03-13T12:49:42;95972.98;;;17.37;35.78
47080;BME280;33067;49.296;14.470;2023-03-13T12:52:10;95973.77;;;17.58;35.58